Choctaw — WDF4875 — position and weather

sailwx.info

Track history (hours):
 
Tides and Currents Weather Stations Pressure Air Temp Water Temp Dewpoint Dewpoint Depression Visibility Wind Speed Wind Dir Waves Ship Positions

Choctaw

Owner: Canal Barge Company, Inc., Belle Chasse, LA. More information available from US FCC via Universal Licensing System and Coast Guard Vessel Documentation Center.

Last reported at 2017-Nov-23 01:19 UTC. Time now 2017-Nov-24 02:14 UTC.
Position N 29°31' W 094°53'.

Length 25 m.

Type: Towing. MMSI: 367456760.

Date/timePositionNaut miles runAvg speedWind from/ knotsBaromVisibWave heightAir tempDewpointWater temp
2017-Nov-23 01:19N 29°31' W 094°53'2 7.1
2017-Nov-23 01:00N 29°33' W 094°54'4 7.4
2017-Nov-23 00:30N 29°36' W 094°57'4 7.3
2017-Nov-23 00:00N 29°39' W 094°58'4 7.3
2017-Nov-22 23:30N 29°42' W 095°01'3 1.5
2017-Nov-22 21:46N 29°44' W 095°03'  
2017-Nov-19 12:36N 29°42' W 095°01'1 4.9
2017-Nov-19 12:20N 29°44' W 095°02'1 0.0
2017-Nov-17 16:53N 29°44' W 095°03'2 4.3
2017-Nov-17 16:28N 29°43' W 095°01'1 1.7
2017-Nov-17 15:59N 29°42' W 095°02'1 0.1
2017-Nov-17 09:33N 29°42' W 095°03'0 0.4
2017-Nov-17 09:24N 29°42' W 095°03'1 1.4
2017-Nov-17 08:53N 29°42' W 095°02'1 1.7
2017-Nov-17 08:30N 29°43' W 095°01'2 4.8
2017-Nov-17 08:00N 29°44' W 095°03'3 0.2
2017-Nov-16 16:16N 29°42' W 095°01'1 3.9
2017-Nov-16 15:59N 29°42' W 095°03'0 0.6
2017-Nov-16 15:29N 29°42' W 095°03'0 0.0
2017-Nov-16 14:47N 29°42' W 095°03'0 0.0
2017-Nov-16 14:17N 29°42' W 095°03'0 0.0
2017-Nov-16 13:59N 29°42' W 095°03'0 0.0
2017-Nov-16 13:23N 29°42' W 095°03'0 0.0
2017-Nov-16 12:32N 29°42' W 095°03'0 0.0
2017-Nov-16 12:26N 29°42' W 095°03'0 0.0
2017-Nov-16 11:59N 29°42' W 095°03'0 0.0
2017-Nov-16 11:11N 29°42' W 095°03'0 0.0
2017-Nov-16 10:44N 29°42' W 095°03'0 0.0
2017-Nov-16 10:17N 29°42' W 095°03'0 0.0
2017-Nov-16 09:56N 29°42' W 095°03'0 0.0
2017-Nov-16 09:23N 29°42' W 095°03'0 0.0
2017-Nov-16 08:44N 29°42' W 095°03'0 0.0
2017-Nov-16 07:50N 29°42' W 095°03'0 0.0
2017-Nov-16 07:23N 29°42' W 095°03'0 0.0
2017-Nov-16 06:53N 29°42' W 095°03'0 0.0
2017-Nov-16 06:29N 29°42' W 095°03'0 0.0
2017-Nov-16 05:22N 29°42' W 095°03'0 0.0
2017-Nov-16 04:49N 29°42' W 095°03'2 2.7
2017-Nov-16 04:13N 29°44' W 095°02'2 6.5
2017-Nov-16 03:53N 29°45' W 095°04'3 0.2
2017-Nov-15 15:37N 29°43' W 095°01'1 5.6
2017-Nov-15 15:30N 29°42' W 095°01'2 4.4
2017-Nov-15 14:57N 29°41' W 094°59'3 6.3
2017-Nov-15 14:30N 29°38' W 094°58'3 6.4
2017-Nov-15 14:00N 29°35' W 094°56'73 3.7
2017-Nov-14 18:07N 30°04' W 093°39'1 6.1
2017-Nov-14 17:55N 30°04' W 093°37'3 5.7
2017-Nov-14 17:29N 30°04' W 093°34'3 5.5
2017-Nov-14 17:00N 30°04' W 093°31'3 5.6
2017-Nov-14 16:30N 30°04' W 093°28'3 5.6
2017-Nov-14 16:00N 30°04' W 093°25'3 5.3
2017-Nov-14 15:30N 30°04' W 093°22'2 3.9
2017-Nov-14 15:00N 30°05' W 093°20'1 1.0
2017-Nov-14 14:29N 30°05' W 093°20'0 0.0
2017-Nov-14 13:56N 30°05' W 093°20'0 0.0
2017-Nov-14 13:29N 30°05' W 093°20'0 0.0
2017-Nov-14 12:59N 30°05' W 093°20'14 1.2
2017-Nov-14 01:42N 29°56' W 093°08'1 4.5
2017-Nov-14 01:29N 29°56' W 093°07'2 4.2
2017-Nov-14 00:57N 29°56' W 093°04'  
Track history (hours):
 
Tides and Currents Weather Stations Pressure Air Temp Water Temp Dewpoint Dewpoint Depression Visibility Wind Speed Wind Dir Waves Ship Positions

Choctaw

Owner: Canal Barge Company, Inc., Belle Chasse, LA. More information available from US FCC via Universal Licensing System and Coast Guard Vessel Documentation Center.

Last reported at 2017-Nov-23 01:19 UTC. Time now 2017-Nov-24 02:14 UTC.
Position N 29°31' W 094°53'.

Length 25 m.

Type: Towing. MMSI: 367456760.

Date/timePositionNaut miles runAvg speedWind from/ knotsBaromVisibWave heightAir tempDewpointWater temp
2017-Nov-23 01:19N 29°31' W 094°53'2 7.1
2017-Nov-23 01:00N 29°33' W 094°54'4 7.4
2017-Nov-23 00:30N 29°36' W 094°57'4 7.3
2017-Nov-23 00:00N 29°39' W 094°58'4 7.3
2017-Nov-22 23:30N 29°42' W 095°01'3 1.5
2017-Nov-22 21:46N 29°44' W 095°03'  
2017-Nov-19 12:36N 29°42' W 095°01'1 4.9
2017-Nov-19 12:20N 29°44' W 095°02'1 0.0
2017-Nov-17 16:53N 29°44' W 095°03'2 4.3
2017-Nov-17 16:28N 29°43' W 095°01'1 1.7
2017-Nov-17 15:59N 29°42' W 095°02'1 0.1
2017-Nov-17 09:33N 29°42' W 095°03'0 0.4
2017-Nov-17 09:24N 29°42' W 095°03'1 1.4
2017-Nov-17 08:53N 29°42' W 095°02'1 1.7
2017-Nov-17 08:30N 29°43' W 095°01'2 4.8
2017-Nov-17 08:00N 29°44' W 095°03'3 0.2
2017-Nov-16 16:16N 29°42' W 095°01'1 3.9
2017-Nov-16 15:59N 29°42' W 095°03'0 0.6
2017-Nov-16 15:29N 29°42' W 095°03'0 0.0
2017-Nov-16 14:47N 29°42' W 095°03'0 0.0
2017-Nov-16 14:17N 29°42' W 095°03'0 0.0
2017-Nov-16 13:59N 29°42' W 095°03'0 0.0
2017-Nov-16 13:23N 29°42' W 095°03'0 0.0
2017-Nov-16 12:32N 29°42' W 095°03'0 0.0
2017-Nov-16 12:26N 29°42' W 095°03'0 0.0
2017-Nov-16 11:59N 29°42' W 095°03'0 0.0
2017-Nov-16 11:11N 29°42' W 095°03'0 0.0
2017-Nov-16 10:44N 29°42' W 095°03'0 0.0
2017-Nov-16 10:17N 29°42' W 095°03'0 0.0
2017-Nov-16 09:56N 29°42' W 095°03'0 0.0
2017-Nov-16 09:23N 29°42' W 095°03'0 0.0
2017-Nov-16 08:44N 29°42' W 095°03'0 0.0
2017-Nov-16 07:50N 29°42' W 095°03'0 0.0
2017-Nov-16 07:23N 29°42' W 095°03'0 0.0
2017-Nov-16 06:53N 29°42' W 095°03'0 0.0
2017-Nov-16 06:29N 29°42' W 095°03'0 0.0
2017-Nov-16 05:22N 29°42' W 095°03'0 0.0
2017-Nov-16 04:49N 29°42' W 095°03'2 2.7
2017-Nov-16 04:13N 29°44' W 095°02'2 6.5
2017-Nov-16 03:53N 29°45' W 095°04'3 0.2
2017-Nov-15 15:37N 29°43' W 095°01'1 5.6
2017-Nov-15 15:30N 29°42' W 095°01'2 4.4
2017-Nov-15 14:57N 29°41' W 094°59'3 6.3
2017-Nov-15 14:30N 29°38' W 094°58'3 6.4
2017-Nov-15 14:00N 29°35' W 094°56'73 3.7
2017-Nov-14 18:07N 30°04' W 093°39'1 6.1
2017-Nov-14 17:55N 30°04' W 093°37'3 5.7
2017-Nov-14 17:29N 30°04' W 093°34'3 5.5
2017-Nov-14 17:00N 30°04' W 093°31'3 5.6
2017-Nov-14 16:30N 30°04' W 093°28'3 5.6
2017-Nov-14 16:00N 30°04' W 093°25'3 5.3
2017-Nov-14 15:30N 30°04' W 093°22'2 3.9
2017-Nov-14 15:00N 30°05' W 093°20'1 1.0
2017-Nov-14 14:29N 30°05' W 093°20'0 0.0
2017-Nov-14 13:56N 30°05' W 093°20'0 0.0
2017-Nov-14 13:29N 30°05' W 093°20'0 0.0
2017-Nov-14 12:59N 30°05' W 093°20'14 1.2
2017-Nov-14 01:42N 29°56' W 093°08'1 4.5
2017-Nov-14 01:29N 29°56' W 093°07'2 4.2
2017-Nov-14 00:57N 29°56' W 093°04'  

Dump ship's entire track history